createdAt,value
2023-08-17T00:02:00.116Z,50.81
2023-08-17T00:04:26.979Z,50.72
2023-08-17T00:06:53.730Z,50.66
2023-08-17T00:09:23.256Z,50.80
2023-08-17T00:11:50.035Z,50.82
2023-08-17T00:14:16.705Z,51.02
2023-08-17T00:16:43.417Z,50.95
2023-08-17T00:19:10.183Z,50.95
2023-08-17T00:21:39.062Z,50.83
2023-08-17T00:24:06.005Z,50.96
2023-08-17T00:26:35.084Z,50.95
2023-08-17T00:29:03.964Z,51.01
2023-08-17T00:31:30.797Z,50.99
2023-08-17T00:34:02.313Z,51.01
2023-08-17T00:36:31.356Z,51.05
2023-08-17T00:39:00.788Z,51.01
2023-08-17T00:41:29.742Z,50.98
2023-08-17T00:43:56.444Z,50.79
2023-08-17T00:46:24.320Z,50.64
2023-08-17T00:48:51.648Z,50.74
2023-08-17T00:51:21.786Z,50.53
2023-08-17T00:53:48.600Z,50.26
2023-08-17T00:56:17.614Z,50.20
2023-08-17T00:58:44.563Z,50.00
2023-08-17T01:01:13.550Z,50.11
2023-08-17T01:03:42.017Z,49.63
2023-08-17T01:06:08.856Z,50.09
2023-08-17T01:08:35.593Z,49.65
2023-08-17T01:11:47.368Z,49.88
2023-08-17T01:14:26.409Z,49.78
2023-08-17T01:17:02.506Z,49.66
2023-08-17T01:19:29.388Z,49.49
2023-08-17T01:22:01.217Z,49.26
2023-08-17T01:24:28.010Z,49.07
2023-08-17T01:26:54.830Z,48.60
2023-08-17T01:29:23.826Z,47.98
2023-08-17T01:32:11.287Z,48.47
2023-08-17T01:34:41.480Z,48.42
2023-08-17T01:37:08.811Z,48.20
2023-08-17T01:39:39.583Z,48.12
2023-08-17T01:42:06.413Z,48.43
2023-08-17T01:44:33.140Z,47.85
2023-08-17T01:47:02.212Z,47.82
2023-08-17T01:49:28.907Z,47.57
2023-08-17T01:51:55.647Z,47.84
2023-08-17T01:54:25.575Z,47.31
2023-08-17T01:56:52.313Z,47.36
2023-08-17T01:59:18.987Z,47.29
2023-08-17T02:01:47.860Z,47.00
2023-08-17T02:04:16.827Z,46.88
2023-08-17T02:06:45.710Z,46.67
2023-08-17T02:09:14.711Z,46.68
2023-08-17T02:11:43.531Z,46.68
2023-08-17T02:14:10.318Z,46.92
2023-08-17T02:16:37.055Z,47.01
2023-08-17T02:19:05.990Z,46.88
2023-08-17T02:21:32.662Z,46.62
2023-08-17T02:24:01.496Z,46.79
2023-08-17T02:26:28.252Z,46.53
2023-08-17T02:28:54.980Z,46.36
2023-08-17T02:31:21.771Z,46.76
2023-08-17T02:33:50.655Z,46.56
2023-08-17T02:36:19.928Z,46.77
2023-08-17T02:38:47.568Z,46.69
2023-08-17T02:41:14.302Z,46.55
2023-08-17T02:43:40.953Z,46.51
2023-08-17T02:46:09.814Z,46.77
2023-08-17T02:48:36.569Z,46.25
2023-08-17T02:51:03.364Z,46.51
2023-08-17T02:53:30.147Z,46.55
2023-08-17T02:55:59.707Z,46.65
2023-08-17T02:58:26.425Z,46.50
2023-08-17T03:00:55.496Z,46.53
2023-08-17T03:03:22.289Z,46.45
2023-08-17T03:05:49.092Z,46.29
2023-08-17T03:08:15.864Z,46.26
2023-08-17T03:10:44.717Z,46.50
2023-08-17T03:13:11.585Z,46.40
2023-08-17T03:15:41.158Z,46.41
2023-08-17T03:18:08.152Z,46.27
2023-08-17T03:20:37.090Z,46.40
2023-08-17T03:23:07.301Z,46.65
2023-08-17T03:25:37.377Z,46.35
2023-08-17T03:28:04.484Z,46.60
2023-08-17T03:30:33.447Z,46.31
2023-08-17T03:33:00.252Z,46.29
2023-08-17T03:35:26.948Z,46.41
2023-08-17T03:37:54.677Z,46.46
2023-08-17T03:40:21.383Z,46.28
2023-08-17T03:42:48.091Z,46.27
2023-08-17T03:45:14.854Z,46.36
2023-08-17T03:47:43.719Z,46.45
2023-08-17T03:50:13.207Z,46.33
2023-08-17T03:52:39.952Z,45.97
2023-08-17T03:55:08.455Z,45.67
2023-08-17T03:57:36.480Z,45.99
2023-08-17T04:00:09.093Z,45.87
2023-08-17T04:02:35.905Z,45.54
2023-08-17T04:05:03.483Z,45.87
2023-08-17T04:07:32.607Z,45.26
2023-08-17T04:10:01.564Z,45.02
2023-08-17T04:12:28.403Z,44.86
2023-08-17T04:14:55.176Z,44.91
2023-08-17T04:17:22.867Z,44.89
2023-08-17T04:19:49.711Z,44.97
2023-08-17T04:22:16.444Z,44.92
2023-08-17T04:24:43.159Z,45.08
2023-08-17T04:27:12.280Z,44.95
2023-08-17T04:29:39.187Z,45.21
2023-08-17T04:32:06.056Z,45.07
2023-08-17T04:34:32.812Z,45.08
2023-08-17T04:36:59.532Z,44.66
2023-08-17T04:39:27.138Z,45.15
2023-08-17T04:41:58.499Z,44.88
2023-08-17T04:44:27.385Z,44.98
2023-08-17T04:46:54.130Z,44.81
2023-08-17T04:49:20.877Z,44.95
2023-08-17T04:51:47.603Z,44.91
2023-08-17T04:54:14.283Z,45.07
2023-08-17T04:56:43.540Z,45.17
2023-08-17T04:59:12.921Z,45.27
2023-08-17T05:01:42.256Z,45.29
2023-08-17T05:04:11.668Z,45.17
2023-08-17T05:06:40.704Z,45.35
2023-08-17T05:09:07.849Z,45.43
2023-08-17T05:11:36.828Z,45.44
2023-08-17T05:14:04.264Z,45.32
2023-08-17T05:16:33.263Z,45.49
2023-08-17T05:19:00.724Z,45.43
2023-08-17T05:21:30.113Z,45.11
2023-08-17T05:23:57.627Z,44.89
2023-08-17T05:26:24.518Z,45.02
2023-08-17T05:28:51.243Z,45.12
2023-08-17T05:31:18.019Z,45.00
2023-08-17T05:33:45.236Z,45.18
2023-08-17T05:36:12.301Z,45.04
2023-08-17T05:38:41.328Z,45.33
2023-08-17T05:41:10.934Z,45.05
2023-08-17T05:43:37.745Z,45.23
2023-08-17T05:46:05.125Z,45.43
2023-08-17T05:48:50.724Z,45.23
2023-08-17T05:51:17.558Z,45.33
2023-08-17T05:53:44.369Z,45.27
2023-08-17T05:56:11.088Z,44.94
2023-08-17T05:58:37.770Z,45.04
2023-08-17T06:01:10.326Z,44.92
2023-08-17T06:03:38.388Z,45.15
2023-08-17T06:06:07.877Z,45.11
2023-08-17T06:08:34.786Z,45.15
2023-08-17T06:11:06.736Z,45.34
2023-08-17T06:13:36.815Z,45.25
2023-08-17T06:16:03.958Z,45.03
2023-08-17T06:18:31.078Z,45.17
2023-08-17T06:21:00.219Z,45.32
2023-08-17T06:23:29.239Z,45.28
2023-08-17T06:25:59.922Z,45.20
2023-08-17T06:28:29.455Z,45.07
2023-08-17T06:30:56.632Z,45.28
2023-08-17T06:33:23.571Z,45.37
2023-08-17T06:35:50.699Z,45.39
2023-08-17T06:38:18.120Z,45.26
2023-08-17T06:40:46.102Z,45.36
2023-08-17T06:43:12.903Z,45.27
2023-08-17T06:45:39.644Z,45.50
2023-08-17T06:48:07.006Z,45.61
2023-08-17T06:50:33.764Z,45.77
2023-08-17T06:53:02.760Z,45.86
2023-08-17T06:55:32.013Z,46.09
2023-08-17T06:57:59.562Z,46.25
2023-08-17T07:00:26.400Z,46.26
2023-08-17T07:02:55.379Z,46.33
2023-08-17T07:05:23.853Z,46.46
2023-08-17T07:07:54.173Z,46.31
2023-08-17T07:10:21.171Z,46.60
2023-08-17T07:12:47.862Z,46.30
2023-08-17T07:15:14.607Z,46.50
2023-08-17T07:17:43.456Z,46.54
2023-08-17T07:22:42.193Z,46.29
2023-08-17T07:25:10.175Z,46.33
2023-08-17T07:27:37.024Z,46.54
2023-08-17T07:30:04.213Z,46.34
2023-08-17T07:32:31.020Z,46.07
2023-08-17T07:34:57.804Z,46.27
2023-08-17T07:37:34.134Z,46.22
2023-08-17T07:40:01.834Z,46.17
2023-08-17T07:42:28.681Z,46.40
2023-08-17T07:44:55.578Z,46.40
2023-08-17T07:47:22.272Z,46.38
2023-08-17T07:49:51.169Z,46.35
2023-08-17T07:52:17.853Z,46.27
2023-08-17T07:54:44.814Z,45.96
2023-08-17T07:57:11.827Z,46.37
2023-08-17T07:59:38.640Z,46.52
2023-08-17T08:02:05.440Z,46.32
2023-08-17T08:04:32.140Z,46.28
2023-08-17T08:06:59.004Z,46.07
2023-08-17T08:09:25.726Z,46.09
2023-08-17T08:11:52.535Z,45.83
2023-08-17T08:14:21.601Z,46.03
2023-08-17T08:16:50.577Z,46.08
2023-08-17T08:19:17.533Z,46.23
2023-08-17T08:21:44.210Z,46.02
2023-08-17T08:24:22.181Z,45.84
2023-08-17T08:27:00.061Z,46.14
2023-08-17T08:29:26.806Z,46.08
2023-08-17T08:31:54.137Z,46.06
2023-08-17T08:34:23.017Z,46.14
2023-08-17T08:36:51.918Z,45.93
2023-08-17T08:39:19.691Z,45.95
2023-08-17T08:41:46.397Z,45.94
2023-08-17T08:44:13.079Z,46.01
2023-08-17T08:46:42.020Z,46.05
2023-08-17T08:49:09.894Z,45.75
2023-08-17T08:51:36.560Z,45.77
2023-08-17T08:54:06.599Z,45.95
2023-08-17T08:56:34.265Z,45.74
2023-08-17T08:59:02.904Z,45.82
2023-08-17T09:01:33.874Z,45.96
2023-08-17T09:04:01.938Z,45.77
2023-08-17T09:06:29.065Z,45.83
2023-08-17T09:08:56.001Z,46.01
2023-08-17T09:11:22.686Z,45.90
2023-08-17T09:13:53.730Z,45.95
2023-08-17T09:16:22.311Z,45.90
2023-08-17T09:18:50.378Z,45.78
2023-08-17T09:21:26.077Z,45.91
2023-08-17T09:23:59.100Z,46.12
2023-08-17T09:26:26.283Z,46.27
2023-08-17T09:28:55.236Z,46.02
2023-08-17T09:31:24.845Z,45.87
2023-08-17T09:33:54.480Z,45.96
2023-08-17T09:36:27.126Z,46.07
2023-08-17T09:38:54.391Z,46.18
2023-08-17T09:41:21.331Z,45.97
2023-08-17T09:43:48.458Z,45.76
2023-08-17T09:46:17.925Z,45.98
2023-08-17T09:48:45.716Z,45.97
2023-08-17T09:51:15.043Z,45.95
2023-08-17T09:53:44.282Z,45.92
2023-08-17T09:58:43.283Z,45.91
2023-08-17T10:01:10.117Z,46.03
2023-08-17T10:03:39.144Z,45.81
2023-08-17T10:06:08.089Z,45.84
2023-08-17T10:08:40.775Z,45.90
2023-08-17T10:11:10.174Z,45.50
2023-08-17T10:13:59.090Z,45.74
2023-08-17T10:16:31.660Z,45.88
2023-08-17T10:19:29.410Z,45.68
2023-08-17T10:22:10.162Z,45.73
2023-08-17T10:24:37.563Z,45.44
2023-08-17T10:27:07.769Z,45.35
2023-08-17T10:29:37.145Z,45.42
2023-08-17T10:32:06.065Z,45.28
2023-08-17T10:34:35.043Z,45.30
2023-08-17T10:37:04.383Z,45.00
2023-08-17T10:39:31.966Z,45.38
2023-08-17T10:41:59.295Z,45.25
2023-08-17T10:44:38.299Z,45.11
2023-08-17T10:47:27.112Z,45.35
2023-08-17T10:50:03.052Z,45.09
2023-08-17T10:52:36.680Z,45.06
2023-08-17T10:55:08.231Z,45.09
2023-08-17T10:57:40.708Z,45.10
2023-08-17T11:00:35.720Z,44.97
2023-08-17T11:03:06.778Z,44.80
2023-08-17T11:05:47.411Z,44.79
2023-08-17T11:08:35.484Z,44.79
2023-08-17T11:11:10.803Z,44.81
2023-08-17T11:13:45.872Z,44.68
2023-08-17T11:16:16.028Z,44.47
2023-08-17T11:18:47.628Z,44.16
2023-08-17T11:21:19.404Z,44.45
2023-08-17T11:23:46.798Z,44.56
2023-08-17T11:26:16.770Z,44.85
2023-08-17T11:28:45.902Z,45.04
2023-08-17T11:31:14.013Z,45.00
2023-08-17T11:33:41.193Z,45.00
2023-08-17T11:36:09.523Z,44.64
2023-08-17T11:38:41.343Z,44.70
2023-08-17T11:41:10.414Z,44.57
2023-08-17T11:43:39.475Z,44.56
2023-08-17T11:46:06.932Z,44.79
2023-08-17T11:51:06.110Z,44.63
2023-08-17T11:53:36.748Z,44.83
2023-08-17T11:56:06.695Z,45.10
2023-08-17T11:58:47.719Z,44.95
2023-08-17T12:01:17.169Z,44.83
2023-08-17T12:03:44.681Z,44.98
2023-08-17T12:06:11.963Z,45.00
2023-08-17T12:08:38.709Z,44.94
2023-08-17T12:11:05.951Z,44.80
2023-08-17T12:13:36.118Z,44.90
2023-08-17T12:16:03.281Z,45.05
2023-08-17T12:18:31.789Z,44.89
2023-08-17T12:20:58.521Z,44.94
2023-08-17T12:23:25.295Z,44.95
2023-08-17T12:25:56.204Z,45.01
2023-08-17T12:28:23.506Z,45.05
2023-08-17T12:30:58.332Z,44.85
2023-08-17T12:33:25.042Z,45.20
2023-08-17T12:35:51.781Z,45.15
2023-08-17T12:38:18.989Z,45.23
2023-08-17T12:40:47.851Z,44.89
2023-08-17T12:43:15.977Z,45.18
2023-08-17T12:45:42.986Z,45.03
2023-08-17T12:48:09.829Z,45.34
2023-08-17T12:50:43.475Z,45.17
2023-08-17T12:53:10.785Z,45.17
2023-08-17T12:55:37.562Z,45.15
2023-08-17T12:58:04.627Z,45.11
2023-08-17T13:00:31.308Z,45.34
2023-08-17T13:02:58.058Z,45.15
2023-08-17T13:05:24.864Z,45.35
2023-08-17T13:07:51.718Z,45.37
2023-08-17T13:10:20.853Z,45.35
2023-08-17T13:12:49.682Z,45.26
2023-08-17T13:15:16.491Z,45.39
2023-08-17T13:17:43.839Z,45.42
2023-08-17T13:20:11.662Z,45.34
2023-08-17T13:22:38.420Z,45.30
2023-08-17T13:25:08.267Z,45.25
2023-08-17T13:27:37.130Z,45.41
2023-08-17T13:30:04.121Z,45.27
2023-08-17T13:32:33.550Z,45.19
2023-08-17T13:35:02.501Z,45.31
2023-08-17T13:37:29.561Z,45.36
2023-08-17T13:39:56.748Z,45.42
2023-08-17T13:42:25.945Z,45.61
2023-08-17T13:44:54.897Z,45.49
2023-08-17T13:47:21.694Z,45.35
2023-08-17T13:49:50.608Z,45.32
2023-08-17T13:52:17.259Z,45.41
2023-08-17T13:54:46.824Z,45.39
2023-08-17T13:57:13.591Z,45.50
2023-08-17T13:59:40.319Z,45.36
2023-08-17T14:02:07.433Z,45.36
2023-08-17T14:04:34.094Z,45.41
2023-08-17T14:07:00.743Z,45.45
2023-08-17T14:09:27.479Z,45.58
2023-08-17T14:11:56.485Z,45.47
2023-08-17T14:14:23.320Z,45.60
2023-08-17T14:16:50.030Z,45.65
2023-08-17T14:19:16.760Z,45.55
2023-08-17T14:21:43.465Z,45.49
2023-08-17T14:24:10.811Z,45.55
2023-08-17T14:26:37.561Z,45.74
2023-08-17T14:29:04.611Z,45.88
2023-08-17T14:31:33.604Z,45.67
2023-08-17T14:34:06.188Z,45.71
2023-08-17T14:36:33.370Z,45.86
2023-08-17T14:39:00.140Z,45.86
2023-08-17T14:41:32.559Z,45.72
2023-08-17T14:44:03.472Z,45.91
2023-08-17T14:46:30.657Z,45.85
2023-08-17T14:49:00.788Z,45.68
2023-08-17T14:51:32.021Z,45.68
2023-08-17T14:53:59.042Z,45.89
2023-08-17T14:56:25.871Z,45.72
2023-08-17T14:58:52.588Z,45.81
2023-08-17T15:01:21.593Z,46.01
2023-08-17T15:03:50.716Z,45.83
2023-08-17T15:06:32.331Z,45.90
2023-08-17T15:09:01.406Z,45.88
2023-08-17T15:11:28.205Z,45.90
2023-08-17T15:13:54.927Z,45.98
2023-08-17T15:16:28.999Z,45.92
2023-08-17T15:18:58.736Z,45.94
2023-08-17T15:21:25.578Z,45.80
2023-08-17T15:23:52.312Z,45.78
2023-08-17T15:26:19.098Z,45.98
2023-08-17T15:28:45.882Z,46.07
2023-08-17T15:31:17.526Z,45.82
2023-08-17T15:33:44.513Z,45.78
2023-08-17T15:36:11.387Z,45.96
2023-08-17T15:38:38.561Z,45.79
2023-08-17T15:41:08.034Z,46.18
2023-08-17T15:43:36.935Z,45.83
2023-08-17T15:46:06.761Z,45.76
2023-08-17T15:48:33.569Z,45.99
2023-08-17T15:51:00.323Z,46.09
2023-08-17T15:53:27.066Z,46.03
2023-08-17T15:55:53.801Z,45.93
2023-08-17T15:58:20.584Z,45.85
2023-08-17T16:00:47.321Z,46.00
2023-08-17T16:03:15.481Z,45.98
2023-08-17T16:05:42.376Z,45.90
2023-08-17T16:08:11.671Z,46.14
2023-08-17T16:10:38.497Z,46.20
2023-08-17T16:13:07.555Z,45.92
2023-08-17T16:15:34.229Z,46.16
2023-08-17T16:18:01.806Z,45.91
2023-08-17T16:20:34.670Z,46.03
2023-08-17T16:23:04.105Z,46.06
2023-08-17T16:25:32.742Z,46.03
2023-08-17T16:28:02.193Z,45.83
2023-08-17T16:30:28.971Z,45.89
2023-08-17T16:32:55.808Z,46.20
2023-08-17T16:35:22.978Z,45.97
2023-08-17T16:37:49.808Z,45.99
2023-08-17T16:40:31.951Z,45.97
2023-08-17T16:43:06.148Z,45.87
2023-08-17T16:45:32.913Z,45.98
2023-08-17T16:47:59.753Z,45.95
2023-08-17T16:50:33.128Z,46.08
2023-08-17T16:53:00.471Z,46.21
2023-08-17T16:55:27.313Z,46.08
2023-08-17T16:57:58.264Z,45.94
2023-08-17T17:00:27.319Z,45.95
2023-08-17T17:02:56.442Z,46.16
2023-08-17T17:05:23.314Z,46.08
2023-08-17T17:07:50.027Z,46.10
2023-08-17T17:10:18.861Z,46.08
2023-08-17T17:12:45.596Z,45.95
2023-08-17T17:15:14.446Z,45.92
2023-08-17T17:17:41.315Z,46.23
2023-08-17T17:20:08.918Z,45.93
2023-08-17T17:22:35.704Z,46.01
2023-08-17T17:25:05.056Z,46.07
2023-08-17T17:27:32.006Z,46.22
2023-08-17T17:29:58.774Z,46.00
2023-08-17T17:32:25.502Z,46.19
2023-08-17T17:34:52.340Z,46.32
2023-08-17T17:37:21.109Z,46.13
2023-08-17T17:39:48.485Z,46.01
2023-08-17T17:42:17.515Z,46.03
2023-08-17T17:44:47.160Z,45.97
2023-08-17T17:47:16.034Z,46.13
2023-08-17T17:49:43.106Z,46.12
2023-08-17T17:52:12.285Z,46.21
2023-08-17T17:54:41.321Z,46.11
2023-08-17T17:57:11.182Z,46.17
2023-08-17T17:59:40.150Z,46.01
2023-08-17T18:02:06.997Z,46.22
2023-08-17T18:04:35.876Z,46.33
2023-08-17T18:07:05.975Z,46.21
2023-08-17T18:09:36.218Z,46.46
2023-08-17T18:12:03.956Z,46.24
2023-08-17T18:14:33.889Z,46.30
2023-08-17T18:17:00.831Z,46.17
2023-08-17T18:19:28.116Z,46.15
2023-08-17T18:21:57.844Z,46.33
2023-08-17T18:24:24.672Z,46.30
2023-08-17T18:26:51.391Z,46.25
2023-08-17T18:29:18.047Z,46.35
2023-08-17T18:31:47.056Z,46.41
2023-08-17T18:34:16.525Z,46.50
2023-08-17T18:36:45.419Z,46.48
2023-08-17T18:39:12.193Z,46.41
2023-08-17T18:41:41.119Z,46.38
2023-08-17T18:44:07.856Z,46.55
2023-08-17T18:46:34.810Z,46.41
2023-08-17T18:49:03.737Z,46.43
2023-08-17T18:51:30.584Z,46.52
2023-08-17T18:53:57.417Z,46.59
2023-08-17T18:56:24.195Z,46.51
2023-08-17T18:58:53.299Z,46.52
2023-08-17T19:01:20.034Z,46.51
2023-08-17T19:03:47.212Z,46.35
2023-08-17T19:06:16.784Z,46.50
2023-08-17T19:08:43.450Z,46.56
2023-08-17T19:11:10.282Z,46.65
2023-08-17T19:13:39.174Z,46.50
2023-08-17T19:16:08.088Z,46.58
2023-08-17T19:18:37.038Z,46.67
2023-08-17T19:21:04.605Z,46.67
2023-08-17T19:23:33.485Z,46.62
2023-08-17T19:26:00.462Z,46.57
2023-08-17T19:28:27.292Z,46.64
2023-08-17T19:30:54.058Z,46.71
2023-08-17T19:33:20.815Z,46.66
2023-08-17T19:35:50.468Z,46.53
2023-08-17T19:38:19.533Z,46.74
2023-08-17T19:40:47.854Z,46.68
2023-08-17T19:43:14.852Z,46.54
2023-08-17T19:45:42.278Z,46.58
2023-08-17T19:48:09.422Z,46.58
2023-08-17T19:50:36.177Z,46.81
2023-08-17T19:53:02.908Z,46.74
2023-08-17T19:55:29.632Z,46.67
2023-08-17T19:57:56.560Z,46.63
2023-08-17T20:00:25.557Z,46.79
2023-08-17T20:02:54.719Z,46.64
2023-08-17T20:05:21.527Z,46.67
2023-08-17T20:07:48.378Z,46.86
2023-08-17T20:10:15.374Z,46.67
2023-08-17T20:12:44.406Z,46.72
2023-08-17T20:15:11.499Z,46.76
2023-08-17T20:17:38.512Z,46.83
2023-08-17T20:20:09.102Z,46.90
2023-08-17T20:22:36.004Z,46.66
2023-08-17T20:25:05.027Z,46.87
2023-08-17T20:27:33.976Z,46.87
2023-08-17T20:30:03.659Z,46.77
2023-08-17T20:32:32.786Z,46.73
2023-08-17T20:35:01.740Z,46.62
2023-08-17T20:37:29.173Z,46.57
2023-08-17T20:39:56.341Z,46.77
2023-08-17T20:42:23.052Z,46.79
2023-08-17T20:44:49.871Z,46.77
2023-08-17T20:47:16.685Z,46.56
2023-08-17T20:49:43.930Z,46.77
2023-08-17T20:52:11.898Z,46.88
2023-08-17T20:54:38.710Z,46.60
2023-08-17T20:57:05.686Z,46.78
2023-08-17T20:59:33.070Z,46.82
2023-08-17T21:01:59.893Z,46.69
2023-08-17T21:04:26.668Z,46.67
2023-08-17T21:06:55.640Z,46.80
2023-08-17T21:09:22.374Z,46.62
2023-08-17T21:11:49.112Z,46.49
2023-08-17T21:14:15.910Z,46.81
2023-08-17T21:16:45.068Z,46.81
2023-08-17T21:19:11.937Z,46.81
2023-08-17T21:21:39.260Z,46.77
2023-08-17T21:24:06.141Z,46.72
2023-08-17T21:26:32.987Z,46.72
2023-08-17T21:28:59.781Z,46.72
2023-08-17T21:31:26.539Z,46.90
2023-08-17T21:33:53.353Z,46.72
2023-08-17T21:36:22.243Z,46.79
2023-08-17T21:38:49.024Z,46.79
2023-08-17T21:41:15.836Z,46.71
2023-08-17T21:43:42.624Z,46.75
2023-08-17T21:46:09.341Z,46.59
2023-08-17T21:48:38.347Z,46.68
2023-08-17T21:51:06.021Z,46.62
2023-08-17T21:53:32.996Z,46.87
2023-08-17T21:55:59.730Z,46.66
2023-08-17T21:58:28.604Z,46.88
2023-08-17T22:00:55.338Z,46.82
2023-08-17T22:03:22.185Z,46.63
2023-08-17T22:05:49.022Z,46.66
2023-08-17T22:08:15.831Z,46.83
2023-08-17T22:10:45.366Z,46.80
2023-08-17T22:13:12.318Z,46.74
2023-08-17T22:15:41.624Z,46.58
2023-08-17T22:18:08.524Z,46.93
2023-08-17T22:20:36.107Z,46.86
2023-08-17T22:23:05.125Z,46.64
2023-08-17T22:25:32.101Z,46.81
2023-08-17T22:27:58.950Z,46.62
2023-08-17T22:30:28.674Z,46.73
2023-08-17T22:32:55.557Z,46.68
2023-08-17T22:35:25.051Z,46.67
2023-08-17T22:37:53.200Z,46.49
2023-08-17T22:40:22.219Z,46.49
2023-08-17T22:42:48.979Z,46.51
2023-08-17T22:45:15.928Z,46.64
2023-08-17T22:47:42.718Z,46.29
2023-08-17T22:50:10.093Z,46.23
2023-08-17T22:52:39.681Z,46.32
2023-08-17T22:55:09.731Z,46.10
2023-08-17T22:57:36.472Z,46.25
2023-08-17T23:00:03.604Z,46.12
2023-08-17T23:02:30.403Z,46.02
2023-08-17T23:04:59.279Z,45.84
2023-08-17T23:07:26.049Z,45.63
2023-08-17T23:09:52.898Z,45.81
2023-08-17T23:12:19.617Z,46.03
2023-08-17T23:14:48.494Z,45.28
2023-08-17T23:17:33.708Z,45.20
2023-08-17T23:20:00.444Z,45.45
2023-08-17T23:22:27.307Z,45.45
2023-08-17T23:24:54.010Z,45.34
2023-08-17T23:27:20.761Z,45.30
2023-08-17T23:29:47.562Z,45.78
2023-08-17T23:32:26.896Z,44.95
2023-08-17T23:34:55.057Z,45.58
2023-08-17T23:37:23.934Z,45.28
2023-08-17T23:39:51.244Z,45.40
2023-08-17T23:42:20.076Z,45.30
2023-08-17T23:44:51.464Z,45.34
2023-08-17T23:47:18.160Z,44.96
2023-08-17T23:49:47.063Z,44.93
2023-08-17T23:52:13.785Z,44.74
2023-08-17T23:54:42.802Z,44.83
2023-08-17T23:57:09.573Z,44.89
2023-08-17T23:59:36.362Z,44.63
